sensor_id;sensor_type;location;lat;lon;timestamp;temperature;humidity
28460;DHT22;32528;45.712;9.192;2023-11-18T00:01:16;12.20;58.90
28460;DHT22;32528;45.712;9.192;2023-11-18T00:03:17;12.20;59.00
28460;DHT22;32528;45.712;9.192;2023-11-18T00:05:18;12.20;59.30
28460;DHT22;32528;45.712;9.192;2023-11-18T00:07:18;12.10;59.30
28460;DHT22;32528;45.712;9.192;2023-11-18T00:09:19;12.10;59.40
28460;DHT22;32528;45.712;9.192;2023-11-18T00:11:20;12.10;59.50
28460;DHT22;32528;45.712;9.192;2023-11-18T00:13:21;12.10;59.70
28460;DHT22;32528;45.712;9.192;2023-11-18T00:15:22;12.00;59.80
28460;DHT22;32528;45.712;9.192;2023-11-18T00:17:22;12.00;60.70
28460;DHT22;32528;45.712;9.192;2023-11-18T00:19:23;12.00;60.00
28460;DHT22;32528;45.712;9.192;2023-11-18T00:21:24;12.00;59.90
28460;DHT22;32528;45.712;9.192;2023-11-18T00:23:25;11.90;59.90
28460;DHT22;32528;45.712;9.192;2023-11-18T00:25:27;11.90;60.20
28460;DHT22;32528;45.712;9.192;2023-11-18T00:27:27;11.80;59.70
28460;DHT22;32528;45.712;9.192;2023-11-18T00:29:28;11.80;59.70
28460;DHT22;32528;45.712;9.192;2023-11-18T00:31:29;11.80;59.60
28460;DHT22;32528;45.712;9.192;2023-11-18T00:33:30;11.80;59.40
28460;DHT22;32528;45.712;9.192;2023-11-18T00:35:31;11.80;59.30
28460;DHT22;32528;45.712;9.192;2023-11-18T00:37:34;11.80;59.30
28460;DHT22;32528;45.712;9.192;2023-11-18T00:39:34;11.70;59.40
28460;DHT22;32528;45.712;9.192;2023-11-18T00:41:35;11.70;59.60
28460;DHT22;32528;45.712;9.192;2023-11-18T00:43:36;11.70;59.80
28460;DHT22;32528;45.712;9.192;2023-11-18T00:45:37;11.60;59.90
28460;DHT22;32528;45.712;9.192;2023-11-18T00:47:38;11.60;60.20
28460;DHT22;32528;45.712;9.192;2023-11-18T00:49:39;11.60;59.90
28460;DHT22;32528;45.712;9.192;2023-11-18T00:51:40;11.60;60.20
28460;DHT22;32528;45.712;9.192;2023-11-18T00:53:41;11.50;60.20
28460;DHT22;32528;45.712;9.192;2023-11-18T00:55:42;11.50;59.50
28460;DHT22;32528;45.712;9.192;2023-11-18T00:57:43;11.50;59.80
28460;DHT22;32528;45.712;9.192;2023-11-18T00:59:44;11.50;59.80
28460;DHT22;32528;45.712;9.192;2023-11-18T01:01:45;11.60;59.70
28460;DHT22;32528;45.712;9.192;2023-11-18T01:03:46;11.60;60.20
28460;DHT22;32528;45.712;9.192;2023-11-18T01:05:46;11.60;60.30
28460;DHT22;32528;45.712;9.192;2023-11-18T01:07:47;11.50;60.10
28460;DHT22;32528;45.712;9.192;2023-11-18T01:09:48;11.50;60.20
28460;DHT22;32528;45.712;9.192;2023-11-18T01:11:50;11.50;59.80
28460;DHT22;32528;45.712;9.192;2023-11-18T01:13:51;11.50;59.30
28460;DHT22;32528;45.712;9.192;2023-11-18T01:15:52;11.60;59.10
28460;DHT22;32528;45.712;9.192;2023-11-18T01:17:52;11.70;58.80
28460;DHT22;32528;45.712;9.192;2023-11-18T01:19:53;11.70;58.50
28460;DHT22;32528;45.712;9.192;2023-11-18T01:21:54;11.80;58.00
28460;DHT22;32528;45.712;9.192;2023-11-18T01:23:56;11.90;57.70
28460;DHT22;32528;45.712;9.192;2023-11-18T01:25:56;11.90;58.00
28460;DHT22;32528;45.712;9.192;2023-11-18T01:27:57;11.90;57.50
28460;DHT22;32528;45.712;9.192;2023-11-18T01:29:58;11.90;57.50
28460;DHT22;32528;45.712;9.192;2023-11-18T01:32:00;11.90;57.10
28460;DHT22;32528;45.712;9.192;2023-11-18T01:34:00;11.90;57.20
28460;DHT22;32528;45.712;9.192;2023-11-18T01:36:01;11.90;57.50
28460;DHT22;32528;45.712;9.192;2023-11-18T01:38:02;11.90;57.40
28460;DHT22;32528;45.712;9.192;2023-11-18T01:40:03;11.80;57.10
28460;DHT22;32528;45.712;9.192;2023-11-18T01:42:13;11.80;56.40
28460;DHT22;32528;45.712;9.192;2023-11-18T01:44:14;11.80;56.20
28460;DHT22;32528;45.712;9.192;2023-11-18T01:46:16;11.80;56.80
28460;DHT22;32528;45.712;9.192;2023-11-18T01:48:19;11.80;56.60
28460;DHT22;32528;45.712;9.192;2023-11-18T01:50:20;11.80;56.60
28460;DHT22;32528;45.712;9.192;2023-11-18T01:52:21;11.80;56.30
28460;DHT22;32528;45.712;9.192;2023-11-18T01:54:22;11.80;56.10
28460;DHT22;32528;45.712;9.192;2023-11-18T01:56:26;11.80;56.10
28460;DHT22;32528;45.712;9.192;2023-11-18T01:58:27;11.70;56.40
28460;DHT22;32528;45.712;9.192;2023-11-18T02:00:31;11.70;56.50
28460;DHT22;32528;45.712;9.192;2023-11-18T02:02:34;11.60;56.80
28460;DHT22;32528;45.712;9.192;2023-11-18T02:04:36;11.60;56.50
28460;DHT22;32528;45.712;9.192;2023-11-18T02:06:37;11.60;56.40
28460;DHT22;32528;45.712;9.192;2023-11-18T02:08:37;11.60;56.50
28460;DHT22;32528;45.712;9.192;2023-11-18T02:10:57;11.50;56.80
28460;DHT22;32528;45.712;9.192;2023-11-18T02:13:09;11.40;56.60
28460;DHT22;32528;45.712;9.192;2023-11-18T02:15:13;11.40;57.60
28460;DHT22;32528;45.712;9.192;2023-11-18T02:17:20;11.20;59.10
28460;DHT22;32528;45.712;9.192;2023-11-18T02:19:25;11.20;58.10
28460;DHT22;32528;45.712;9.192;2023-11-18T02:21:27;11.10;58.30
28460;DHT22;32528;45.712;9.192;2023-11-18T02:23:29;11.10;57.80
28460;DHT22;32528;45.712;9.192;2023-11-18T02:25:33;11.10;57.50
28460;DHT22;32528;45.712;9.192;2023-11-18T02:27:34;11.10;56.70
28460;DHT22;32528;45.712;9.192;2023-11-18T02:29:38;11.30;55.00
28460;DHT22;32528;45.712;9.192;2023-11-18T02:31:42;11.40;54.60
28460;DHT22;32528;45.712;9.192;2023-11-18T02:33:55;11.50;53.90
28460;DHT22;32528;45.712;9.192;2023-11-18T02:36:09;11.50;54.10
28460;DHT22;32528;45.712;9.192;2023-11-18T02:38:11;11.60;53.60
28460;DHT22;32528;45.712;9.192;2023-11-18T02:40:23;11.60;53.00
28460;DHT22;32528;45.712;9.192;2023-11-18T02:42:25;11.60;52.60
28460;DHT22;32528;45.712;9.192;2023-11-18T02:44:26;11.70;52.10
28460;DHT22;32528;45.712;9.192;2023-11-18T02:46:30;11.80;52.30
28460;DHT22;32528;45.712;9.192;2023-11-18T02:48:31;11.80;51.80
28460;DHT22;32528;45.712;9.192;2023-11-18T02:50:36;11.80;52.60
28460;DHT22;32528;45.712;9.192;2023-11-18T02:52:37;11.70;53.30
28460;DHT22;32528;45.712;9.192;2023-11-18T02:54:38;11.60;53.40
28460;DHT22;32528;45.712;9.192;2023-11-18T02:56:39;11.60;53.40
28460;DHT22;32528;45.712;9.192;2023-11-18T02:58:40;11.40;54.30
28460;DHT22;32528;45.712;9.192;2023-11-18T03:00:41;11.40;55.30
28460;DHT22;32528;45.712;9.192;2023-11-18T03:02:41;11.20;56.70
28460;DHT22;32528;45.712;9.192;2023-11-18T03:04:42;11.00;55.90
28460;DHT22;32528;45.712;9.192;2023-11-18T03:06:44;11.20;54.30
28460;DHT22;32528;45.712;9.192;2023-11-18T03:08:46;11.30;52.00
28460;DHT22;32528;45.712;9.192;2023-11-18T03:10:47;11.50;51.00
28460;DHT22;32528;45.712;9.192;2023-11-18T03:12:52;11.60;51.50
28460;DHT22;32528;45.712;9.192;2023-11-18T03:14:53;11.60;51.10
28460;DHT22;32528;45.712;9.192;2023-11-18T03:16:54;11.70;50.40
28460;DHT22;32528;45.712;9.192;2023-11-18T03:18:56;11.90;49.80
28460;DHT22;32528;45.712;9.192;2023-11-18T03:20:58;12.00;49.60
28460;DHT22;32528;45.712;9.192;2023-11-18T03:23:01;12.00;49.90
28460;DHT22;32528;45.712;9.192;2023-11-18T03:25:02;12.00;50.60
28460;DHT22;32528;45.712;9.192;2023-11-18T03:27:03;11.90;50.80
28460;DHT22;32528;45.712;9.192;2023-11-18T03:29:04;11.90;50.20
28460;DHT22;32528;45.712;9.192;2023-11-18T03:31:05;11.90;49.90
28460;DHT22;32528;45.712;9.192;2023-11-18T03:33:06;11.90;49.50
28460;DHT22;32528;45.712;9.192;2023-11-18T03:35:11;11.90;49.20
28460;DHT22;32528;45.712;9.192;2023-11-18T03:37:12;11.90;49.30
28460;DHT22;32528;45.712;9.192;2023-11-18T03:39:14;12.00;49.20
28460;DHT22;32528;45.712;9.192;2023-11-18T03:41:15;12.00;49.60
28460;DHT22;32528;45.712;9.192;2023-11-18T03:43:16;11.80;49.80
28460;DHT22;32528;45.712;9.192;2023-11-18T03:45:17;11.70;51.80
28460;DHT22;32528;45.712;9.192;2023-11-18T03:47:21;11.60;53.10
28460;DHT22;32528;45.712;9.192;2023-11-18T03:49:24;11.40;54.40
28460;DHT22;32528;45.712;9.192;2023-11-18T03:51:27;11.20;54.20
28460;DHT22;32528;45.712;9.192;2023-11-18T03:53:27;11.10;54.40
28460;DHT22;32528;45.712;9.192;2023-11-18T03:55:28;11.00;54.80
28460;DHT22;32528;45.712;9.192;2023-11-18T03:57:30;10.90;55.50
28460;DHT22;32528;45.712;9.192;2023-11-18T03:59:32;10.70;56.90
28460;DHT22;32528;45.712;9.192;2023-11-18T04:01:32;10.70;56.50
28460;DHT22;32528;45.712;9.192;2023-11-18T04:03:33;10.60;56.10
28460;DHT22;32528;45.712;9.192;2023-11-18T04:05:34;10.50;58.00
28460;DHT22;32528;45.712;9.192;2023-11-18T04:07:36;10.40;58.50
28460;DHT22;32528;45.712;9.192;2023-11-18T04:09:37;10.40;57.90
28460;DHT22;32528;45.712;9.192;2023-11-18T04:11:38;10.20;59.00
28460;DHT22;32528;45.712;9.192;2023-11-18T04:13:39;10.20;58.40
28460;DHT22;32528;45.712;9.192;2023-11-18T04:15:40;10.10;58.40
28460;DHT22;32528;45.712;9.192;2023-11-18T04:17:41;10.10;59.70
28460;DHT22;32528;45.712;9.192;2023-11-18T04:19:41;10.00;59.70
28460;DHT22;32528;45.712;9.192;2023-11-18T04:21:42;9.90;59.80
28460;DHT22;32528;45.712;9.192;2023-11-18T04:23:44;9.80;61.60
28460;DHT22;32528;45.712;9.192;2023-11-18T04:25:47;9.80;62.00
28460;DHT22;32528;45.712;9.192;2023-11-18T04:27:47;9.60;63.30
28460;DHT22;32528;45.712;9.192;2023-11-18T04:29:48;9.60;63.60
28460;DHT22;32528;45.712;9.192;2023-11-18T04:31:49;9.50;64.40
28460;DHT22;32528;45.712;9.192;2023-11-18T04:33:50;9.40;65.70
28460;DHT22;32528;45.712;9.192;2023-11-18T04:35:51;9.30;66.00
28460;DHT22;32528;45.712;9.192;2023-11-18T04:37:52;9.20;66.40
28460;DHT22;32528;45.712;9.192;2023-11-18T04:39:53;9.10;67.30
28460;DHT22;32528;45.712;9.192;2023-11-18T04:41:55;9.00;67.60
28460;DHT22;32528;45.712;9.192;2023-11-18T04:43:57;8.90;68.30
28460;DHT22;32528;45.712;9.192;2023-11-18T04:45:58;8.90;67.40
28460;DHT22;32528;45.712;9.192;2023-11-18T04:47:59;8.80;68.30
28460;DHT22;32528;45.712;9.192;2023-11-18T04:50:00;8.70;69.60
28460;DHT22;32528;45.712;9.192;2023-11-18T04:52:01;8.70;70.20
28460;DHT22;32528;45.712;9.192;2023-11-18T04:54:01;8.60;70.70
28460;DHT22;32528;45.712;9.192;2023-11-18T04:56:04;8.50;70.70
28460;DHT22;32528;45.712;9.192;2023-11-18T04:58:05;8.40;72.60
28460;DHT22;32528;45.712;9.192;2023-11-18T05:00:07;8.40;72.70
28460;DHT22;32528;45.712;9.192;2023-11-18T05:02:11;8.30;71.90
28460;DHT22;32528;45.712;9.192;2023-11-18T05:04:12;8.30;71.80
28460;DHT22;32528;45.712;9.192;2023-11-18T05:06:12;8.30;71.80
28460;DHT22;32528;45.712;9.192;2023-11-18T05:08:20;8.20;72.60
28460;DHT22;32528;45.712;9.192;2023-11-18T05:10:21;8.20;72.40
28460;DHT22;32528;45.712;9.192;2023-11-18T05:12:22;8.10;74.70
28460;DHT22;32528;45.712;9.192;2023-11-18T05:14:23;8.00;73.10
28460;DHT22;32528;45.712;9.192;2023-11-18T05:16:23;8.00;74.80
28460;DHT22;32528;45.712;9.192;2023-11-18T05:18:24;8.00;74.70
28460;DHT22;32528;45.712;9.192;2023-11-18T05:20:25;7.90;73.80
28460;DHT22;32528;45.712;9.192;2023-11-18T05:22:26;7.90;73.40
28460;DHT22;32528;45.712;9.192;2023-11-18T05:24:27;8.00;69.80
28460;DHT22;32528;45.712;9.192;2023-11-18T05:26:28;8.00;72.80
28460;DHT22;32528;45.712;9.192;2023-11-18T05:28:29;7.90;75.00
28460;DHT22;32528;45.712;9.192;2023-11-18T05:30:30;7.80;75.00
28460;DHT22;32528;45.712;9.192;2023-11-18T05:32:31;7.70;74.70
28460;DHT22;32528;45.712;9.192;2023-11-18T05:34:32;7.70;74.90
28460;DHT22;32528;45.712;9.192;2023-11-18T05:36:33;7.70;74.20
28460;DHT22;32528;45.712;9.192;2023-11-18T05:38:37;7.70;73.90
28460;DHT22;32528;45.712;9.192;2023-11-18T05:40:38;7.70;74.90
28460;DHT22;32528;45.712;9.192;2023-11-18T05:42:43;7.70;75.50
28460;DHT22;32528;45.712;9.192;2023-11-18T05:44:46;7.70;75.00
28460;DHT22;32528;45.712;9.192;2023-11-18T05:46:47;7.80;74.60
28460;DHT22;32528;45.712;9.192;2023-11-18T05:48:48;7.80;75.00
28460;DHT22;32528;45.712;9.192;2023-11-18T05:50:49;7.70;74.90
28460;DHT22;32528;45.712;9.192;2023-11-18T05:52:50;7.70;75.10
28460;DHT22;32528;45.712;9.192;2023-11-18T05:54:51;7.70;73.40
28460;DHT22;32528;45.712;9.192;2023-11-18T05:56:52;7.80;74.90
28460;DHT22;32528;45.712;9.192;2023-11-18T05:58:54;7.80;74.30
28460;DHT22;32528;45.712;9.192;2023-11-18T06:00:54;7.80;73.90
28460;DHT22;32528;45.712;9.192;2023-11-18T06:02:55;7.80;74.70
28460;DHT22;32528;45.712;9.192;2023-11-18T06:04:56;7.80;73.60
28460;DHT22;32528;45.712;9.192;2023-11-18T06:06:57;8.00;66.90
28460;DHT22;32528;45.712;9.192;2023-11-18T06:08:58;8.20;71.80
28460;DHT22;32528;45.712;9.192;2023-11-18T06:10:59;8.10;72.20
28460;DHT22;32528;45.712;9.192;2023-11-18T06:13:00;8.10;71.50
28460;DHT22;32528;45.712;9.192;2023-11-18T06:15:01;8.20;69.10
28460;DHT22;32528;45.712;9.192;2023-11-18T06:17:01;8.10;71.20
28460;DHT22;32528;45.712;9.192;2023-11-18T06:19:02;8.20;69.50
28460;DHT22;32528;45.712;9.192;2023-11-18T06:21:06;8.40;65.10
28460;DHT22;32528;45.712;9.192;2023-11-18T06:23:07;8.70;61.50
28460;DHT22;32528;45.712;9.192;2023-11-18T06:25:08;8.70;67.40
28460;DHT22;32528;45.712;9.192;2023-11-18T06:27:09;8.70;66.80
28460;DHT22;32528;45.712;9.192;2023-11-18T06:29:10;8.60;68.80
28460;DHT22;32528;45.712;9.192;2023-11-18T06:31:12;8.60;68.20
28460;DHT22;32528;45.712;9.192;2023-11-18T06:33:14;8.80;64.00
28460;DHT22;32528;45.712;9.192;2023-11-18T06:35:14;9.10;59.80
28460;DHT22;32528;45.712;9.192;2023-11-18T06:37:15;9.20;60.30
28460;DHT22;32528;45.712;9.192;2023-11-18T06:39:17;9.30;60.90
28460;DHT22;32528;45.712;9.192;2023-11-18T06:41:21;9.40;61.10
28460;DHT22;32528;45.712;9.192;2023-11-18T06:43:35;9.40;60.90
28460;DHT22;32528;45.712;9.192;2023-11-18T06:45:56;9.40;61.00
28460;DHT22;32528;45.712;9.192;2023-11-18T06:47:57;9.30;61.90
28460;DHT22;32528;45.712;9.192;2023-11-18T06:49:59;9.30;61.60
28460;DHT22;32528;45.712;9.192;2023-11-18T06:52:00;9.40;61.10
28460;DHT22;32528;45.712;9.192;2023-11-18T06:54:04;9.40;59.60
28460;DHT22;32528;45.712;9.192;2023-11-18T06:56:13;9.60;60.00
28460;DHT22;32528;45.712;9.192;2023-11-18T06:58:15;9.50;63.70
28460;DHT22;32528;45.712;9.192;2023-11-18T07:00:16;9.50;65.20
28460;DHT22;32528;45.712;9.192;2023-11-18T07:02:16;9.40;65.20
28460;DHT22;32528;45.712;9.192;2023-11-18T07:04:17;9.30;67.00
28460;DHT22;32528;45.712;9.192;2023-11-18T07:06:20;9.20;67.70
28460;DHT22;32528;45.712;9.192;2023-11-18T07:08:24;9.20;68.50
28460;DHT22;32528;45.712;9.192;2023-11-18T07:10:25;9.20;69.00
28460;DHT22;32528;45.712;9.192;2023-11-18T07:12:28;9.30;64.90
28460;DHT22;32528;45.712;9.192;2023-11-18T07:14:29;9.30;67.20
28460;DHT22;32528;45.712;9.192;2023-11-18T07:16:30;9.30;68.30
28460;DHT22;32528;45.712;9.192;2023-11-18T07:18:30;9.40;65.40
28460;DHT22;32528;45.712;9.192;2023-11-18T07:20:31;9.50;64.90
28460;DHT22;32528;45.712;9.192;2023-11-18T07:22:33;9.50;67.20
28460;DHT22;32528;45.712;9.192;2023-11-18T07:24:35;9.60;66.80
28460;DHT22;32528;45.712;9.192;2023-11-18T07:26:35;9.70;63.50
28460;DHT22;32528;45.712;9.192;2023-11-18T07:28:36;9.80;65.60
28460;DHT22;32528;45.712;9.192;2023-11-18T07:30:37;9.80;69.30
28460;DHT22;32528;45.712;9.192;2023-11-18T07:32:38;9.60;70.70
28460;DHT22;32528;45.712;9.192;2023-11-18T07:34:40;9.70;67.00
28460;DHT22;32528;45.712;9.192;2023-11-18T07:36:41;9.70;70.40
28460;DHT22;32528;45.712;9.192;2023-11-18T07:38:47;9.70;72.30
28460;DHT22;32528;45.712;9.192;2023-11-18T07:40:47;9.60;72.30
28460;DHT22;32528;45.712;9.192;2023-11-18T07:42:48;9.60;72.30
28460;DHT22;32528;45.712;9.192;2023-11-18T07:44:49;9.60;72.60
28460;DHT22;32528;45.712;9.192;2023-11-18T07:46:50;9.70;72.80
28460;DHT22;32528;45.712;9.192;2023-11-18T07:48:52;9.70;73.00
28460;DHT22;32528;45.712;9.192;2023-11-18T07:50:52;9.70;74.70
28460;DHT22;32528;45.712;9.192;2023-11-18T07:52:53;9.70;74.80
28460;DHT22;32528;45.712;9.192;2023-11-18T07:54:54;9.70;75.20
28460;DHT22;32528;45.712;9.192;2023-11-18T07:56:55;9.70;75.70
28460;DHT22;32528;45.712;9.192;2023-11-18T07:58:56;9.70;75.40
28460;DHT22;32528;45.712;9.192;2023-11-18T08:00:56;9.70;75.60
28460;DHT22;32528;45.712;9.192;2023-11-18T08:02:58;9.80;74.50
28460;DHT22;32528;45.712;9.192;2023-11-18T08:05:00;9.90;73.40
28460;DHT22;32528;45.712;9.192;2023-11-18T08:07:03;10.00;73.60
28460;DHT22;32528;45.712;9.192;2023-11-18T08:09:05;10.20;72.30
28460;DHT22;32528;45.712;9.192;2023-11-18T08:11:13;10.30;71.70
28460;DHT22;32528;45.712;9.192;2023-11-18T08:13:14;10.40;71.40
28460;DHT22;32528;45.712;9.192;2023-11-18T08:15:15;10.60;72.10
28460;DHT22;32528;45.712;9.192;2023-11-18T08:17:16;10.70;71.30
28460;DHT22;32528;45.712;9.192;2023-11-18T08:19:16;10.90;71.80
28460;DHT22;32528;45.712;9.192;2023-11-18T08:21:19;11.00;72.70
28460;DHT22;32528;45.712;9.192;2023-11-18T08:23:20;11.10;73.00
28460;DHT22;32528;45.712;9.192;2023-11-18T08:25:21;11.30;73.60
28460;DHT22;32528;45.712;9.192;2023-11-18T08:27:22;11.40;70.30
28460;DHT22;32528;45.712;9.192;2023-11-18T08:29:23;11.40;71.60
28460;DHT22;32528;45.712;9.192;2023-11-18T08:31:28;11.60;66.10
28460;DHT22;32528;45.712;9.192;2023-11-18T08:33:29;11.70;67.30
28460;DHT22;32528;45.712;9.192;2023-11-18T08:35:30;11.80;66.80
28460;DHT22;32528;45.712;9.192;2023-11-18T08:37:31;11.90;65.50
28460;DHT22;32528;45.712;9.192;2023-11-18T08:39:32;12.00;70.90
28460;DHT22;32528;45.712;9.192;2023-11-18T08:41:33;12.00;67.80
28460;DHT22;32528;45.712;9.192;2023-11-18T08:43:34;12.10;67.70
28460;DHT22;32528;45.712;9.192;2023-11-18T08:45:35;12.20;64.90
28460;DHT22;32528;45.712;9.192;2023-11-18T08:47:37;12.40;62.50
28460;DHT22;32528;45.712;9.192;2023-11-18T08:49:39;12.50;62.10
28460;DHT22;32528;45.712;9.192;2023-11-18T08:51:40;12.50;58.80
28460;DHT22;32528;45.712;9.192;2023-11-18T08:53:42;12.60;58.70
28460;DHT22;32528;45.712;9.192;2023-11-18T08:55:44;12.70;58.30
28460;DHT22;32528;45.712;9.192;2023-11-18T08:57:48;12.70;59.60
28460;DHT22;32528;45.712;9.192;2023-11-18T08:59:53;12.80;60.40
28460;DHT22;32528;45.712;9.192;2023-11-18T09:01:54;12.80;59.70
28460;DHT22;32528;45.712;9.192;2023-11-18T09:03:59;12.90;59.50
28460;DHT22;32528;45.712;9.192;2023-11-18T09:06:03;13.00;58.50
28460;DHT22;32528;45.712;9.192;2023-11-18T09:08:17;13.00;59.20
28460;DHT22;32528;45.712;9.192;2023-11-18T09:10:20;13.10;58.90
28460;DHT22;32528;45.712;9.192;2023-11-18T09:12:21;13.10;54.80
28460;DHT22;32528;45.712;9.192;2023-11-18T09:14:26;13.20;57.80
28460;DHT22;32528;45.712;9.192;2023-11-18T09:16:26;13.20;58.00
28460;DHT22;32528;45.712;9.192;2023-11-18T09:18:30;13.30;58.50
28460;DHT22;32528;45.712;9.192;2023-11-18T09:20:33;13.30;60.10
28460;DHT22;32528;45.712;9.192;2023-11-18T09:22:34;13.40;59.80
28460;DHT22;32528;45.712;9.192;2023-11-18T09:24:35;13.40;59.50
28460;DHT22;32528;45.712;9.192;2023-11-18T09:26:37;13.40;57.70
28460;DHT22;32528;45.712;9.192;2023-11-18T09:28:38;13.50;56.10
28460;DHT22;32528;45.712;9.192;2023-11-18T09:30:38;13.60;55.80
28460;DHT22;32528;45.712;9.192;2023-11-18T09:32:43;13.60;53.00
28460;DHT22;32528;45.712;9.192;2023-11-18T09:34:43;13.70;52.40
28460;DHT22;32528;45.712;9.192;2023-11-18T09:36:44;13.70;51.90
28460;DHT22;32528;45.712;9.192;2023-11-18T09:38:45;13.70;51.60
28460;DHT22;32528;45.712;9.192;2023-11-18T09:40:52;13.80;51.30
28460;DHT22;32528;45.712;9.192;2023-11-18T09:42:53;13.90;52.10
28460;DHT22;32528;45.712;9.192;2023-11-18T09:44:58;13.90;52.00
28460;DHT22;32528;45.712;9.192;2023-11-18T09:47:04;14.00;51.50
28460;DHT22;32528;45.712;9.192;2023-11-18T09:49:22;14.00;49.70
28460;DHT22;32528;45.712;9.192;2023-11-18T09:51:28;14.00;50.20
28460;DHT22;32528;45.712;9.192;2023-11-18T09:53:31;14.10;51.20
28460;DHT22;32528;45.712;9.192;2023-11-18T09:55:53;14.10;51.20
28460;DHT22;32528;45.712;9.192;2023-11-18T09:58:04;14.20;50.80
28460;DHT22;32528;45.712;9.192;2023-11-18T10:00:12;14.10;51.40
28460;DHT22;32528;45.712;9.192;2023-11-18T10:02:29;14.10;51.70
28460;DHT22;32528;45.712;9.192;2023-11-18T10:04:30;14.10;51.40
28460;DHT22;32528;45.712;9.192;2023-11-18T10:06:37;14.10;51.40
28460;DHT22;32528;45.712;9.192;2023-11-18T10:08:41;14.10;51.40
28460;DHT22;32528;45.712;9.192;2023-11-18T10:10:46;14.20;52.30
28460;DHT22;32528;45.712;9.192;2023-11-18T10:12:48;14.20;51.50
28460;DHT22;32528;45.712;9.192;2023-11-18T10:15:04;14.30;52.40
28460;DHT22;32528;45.712;9.192;2023-11-18T10:17:11;14.30;51.70
28460;DHT22;32528;45.712;9.192;2023-11-18T10:19:15;14.30;51.60
28460;DHT22;32528;45.712;9.192;2023-11-18T10:21:34;14.30;51.90
28460;DHT22;32528;45.712;9.192;2023-11-18T10:23:58;14.30;52.30
28460;DHT22;32528;45.712;9.192;2023-11-18T10:26:01;14.40;52.10
28460;DHT22;32528;45.712;9.192;2023-11-18T10:28:02;14.50;52.50
28460;DHT22;32528;45.712;9.192;2023-11-18T10:30:04;14.50;51.90
28460;DHT22;32528;45.712;9.192;2023-11-18T10:32:06;14.50;51.80
28460;DHT22;32528;45.712;9.192;2023-11-18T10:34:21;14.50;50.80
28460;DHT22;32528;45.712;9.192;2023-11-18T10:36:22;14.50;50.90
28460;DHT22;32528;45.712;9.192;2023-11-18T10:38:24;14.60;51.90
28460;DHT22;32528;45.712;9.192;2023-11-18T10:40:27;14.60;53.40
28460;DHT22;32528;45.712;9.192;2023-11-18T10:42:28;14.60;52.20
28460;DHT22;32528;45.712;9.192;2023-11-18T10:44:30;14.60;51.70
28460;DHT22;32528;45.712;9.192;2023-11-18T10:46:31;14.60;51.20
28460;DHT22;32528;45.712;9.192;2023-11-18T10:48:32;14.70;52.10
28460;DHT22;32528;45.712;9.192;2023-11-18T10:50:33;14.70;50.40
28460;DHT22;32528;45.712;9.192;2023-11-18T10:52:34;14.70;50.00
28460;DHT22;32528;45.712;9.192;2023-11-18T10:54:50;14.80;51.10
28460;DHT22;32528;45.712;9.192;2023-11-18T10:56:54;14.90;50.50
28460;DHT22;32528;45.712;9.192;2023-11-18T10:58:57;14.90;50.00
28460;DHT22;32528;45.712;9.192;2023-11-18T11:00:58;15.00;51.40
28460;DHT22;32528;45.712;9.192;2023-11-18T11:03:02;15.00;49.70
28460;DHT22;32528;45.712;9.192;2023-11-18T11:05:05;15.10;49.60
28460;DHT22;32528;45.712;9.192;2023-11-18T11:07:07;15.10;48.80
28460;DHT22;32528;45.712;9.192;2023-11-18T11:09:09;15.00;49.00
28460;DHT22;32528;45.712;9.192;2023-11-18T11:11:21;15.10;49.60
28460;DHT22;32528;45.712;9.192;2023-11-18T11:13:27;15.20;49.00
28460;DHT22;32528;45.712;9.192;2023-11-18T11:15:31;15.20;49.00
28460;DHT22;32528;45.712;9.192;2023-11-18T11:17:35;15.20;49.60
28460;DHT22;32528;45.712;9.192;2023-11-18T11:19:52;15.30;50.30
28460;DHT22;32528;45.712;9.192;2023-11-18T11:22:07;15.40;47.70
28460;DHT22;32528;45.712;9.192;2023-11-18T11:24:20;15.40;48.40
28460;DHT22;32528;45.712;9.192;2023-11-18T11:28:58;15.60;47.60
28460;DHT22;32528;45.712;9.192;2023-11-18T11:31:07;15.60;47.60
28460;DHT22;32528;45.712;9.192;2023-11-18T11:33:39;15.60;48.20
28460;DHT22;32528;45.712;9.192;2023-11-18T11:35:48;15.60;46.70
28460;DHT22;32528;45.712;9.192;2023-11-18T11:37:50;15.60;47.20
28460;DHT22;32528;45.712;9.192;2023-11-18T11:39:55;15.70;47.80
28460;DHT22;32528;45.712;9.192;2023-11-18T11:41:59;15.70;47.80
28460;DHT22;32528;45.712;9.192;2023-11-18T11:44:00;15.60;46.90
28460;DHT22;32528;45.712;9.192;2023-11-18T11:46:01;15.60;47.20
28460;DHT22;32528;45.712;9.192;2023-11-18T11:48:10;15.70;46.60
28460;DHT22;32528;45.712;9.192;2023-11-18T11:50:25;15.70;47.90
28460;DHT22;32528;45.712;9.192;2023-11-18T11:52:33;15.80;48.00
28460;DHT22;32528;45.712;9.192;2023-11-18T11:54:42;15.90;47.70
28460;DHT22;32528;45.712;9.192;2023-11-18T11:56:46;16.00;47.30
28460;DHT22;32528;45.712;9.192;2023-11-18T11:58:47;15.90;46.90
28460;DHT22;32528;45.712;9.192;2023-11-18T12:00:53;15.90;46.80
28460;DHT22;32528;45.712;9.192;2023-11-18T12:02:54;15.80;47.40
28460;DHT22;32528;45.712;9.192;2023-11-18T12:04:56;15.70;47.20
28460;DHT22;32528;45.712;9.192;2023-11-18T12:06:58;15.70;46.50
28460;DHT22;32528;45.712;9.192;2023-11-18T12:09:03;15.70;46.90
28460;DHT22;32528;45.712;9.192;2023-11-18T12:11:07;15.70;47.60
28460;DHT22;32528;45.712;9.192;2023-11-18T12:13:10;15.70;47.50
28460;DHT22;32528;45.712;9.192;2023-11-18T12:15:49;15.70;46.80
28460;DHT22;32528;45.712;9.192;2023-11-18T12:20:37;15.70;47.70
28460;DHT22;32528;45.712;9.192;2023-11-18T12:23:04;15.70;46.90
28460;DHT22;32528;45.712;9.192;2023-11-18T12:29:43;15.80;46.90
28460;DHT22;32528;45.712;9.192;2023-11-18T12:31:44;15.80;46.70
28460;DHT22;32528;45.712;9.192;2023-11-18T12:34:05;15.80;46.80
28460;DHT22;32528;45.712;9.192;2023-11-18T12:40:57;15.60;46.50
28460;DHT22;32528;45.712;9.192;2023-11-18T12:43:03;15.70;48.00
28460;DHT22;32528;45.712;9.192;2023-11-18T12:47:16;15.70;48.80
28460;DHT22;32528;45.712;9.192;2023-11-18T12:49:23;15.70;46.90
28460;DHT22;32528;45.712;9.192;2023-11-18T12:51:24;15.80;47.40
28460;DHT22;32528;45.712;9.192;2023-11-18T12:53:25;15.70;47.50
28460;DHT22;32528;45.712;9.192;2023-11-18T12:55:27;15.80;46.90
28460;DHT22;32528;45.712;9.192;2023-11-18T12:57:29;15.80;47.00
28460;DHT22;32528;45.712;9.192;2023-11-18T12:59:32;15.80;46.30
28460;DHT22;32528;45.712;9.192;2023-11-18T13:01:33;15.80;47.30
28460;DHT22;32528;45.712;9.192;2023-11-18T13:03:36;15.80;47.00
28460;DHT22;32528;45.712;9.192;2023-11-18T13:05:37;15.80;46.30
28460;DHT22;32528;45.712;9.192;2023-11-18T13:07:38;15.80;47.40
28460;DHT22;32528;45.712;9.192;2023-11-18T13:09:40;15.80;47.40
28460;DHT22;32528;45.712;9.192;2023-11-18T13:11:43;15.80;47.90
28460;DHT22;32528;45.712;9.192;2023-11-18T13:13:45;15.80;47.80
28460;DHT22;32528;45.712;9.192;2023-11-18T13:15:47;15.80;47.60
28460;DHT22;32528;45.712;9.192;2023-11-18T13:18:04;15.80;48.20